Time;durP1;ratioP1;P1;durP2;ratioP2;P2;SDS_P1;SDS_P2;PMS_P1;PMS_P2;Temp;Humidity;BMP_temperature;BMP_pressure;BME280_temperature;BME280_humidity;BME280_pressure;Samples;Min_cycle;Max_cycle;Signal;HPM_P1;HPM_P2
2021/12/14 00:01:53;;;;;;;16.00;9.57;;;8.90;99.90;;;;;;4891985;29;20043;-78
2021/12/14 00:04:24;;;;;;;11.57;9.40;;;8.90;99.90;;;;;;4916627;29;20036;-78
2021/12/14 00:06:51;;;;;;;12.23;9.85;;;8.80;99.90;;;;;;4903836;29;20032;-78
2021/12/14 00:09:28;;;;;;;11.00;9.65;;;8.80;99.90;;;;;;4881816;29;20408;-78
2021/12/14 00:12:23;;;;;;;11.57;8.77;;;8.90;99.90;;;;;;4895458;29;20522;-78
2021/12/14 00:17:33;;;;;;;9.35;7.97;;;8.90;99.90;;;;;;4917423;29;20032;-78
2021/12/14 00:20:04;;;;;;;10.02;8.27;;;8.90;99.90;;;;;;4907939;29;20040;-78
2021/12/14 00:24:06;;;;;;;11.73;9.10;;;8.80;99.90;;;;;;4913949;29;20048;-78
2021/12/14 00:25:26;;;;;;;13.18;10.77;;;8.90;99.90;;;;;;4897591;29;20039;-78
2021/12/14 00:27:53;;;;;;;;;;;8.90;99.90;;;;;;4892033;29;20043;-78
2021/12/14 00:30:20;;;;;;;13.27;10.20;;;8.80;99.90;;;;;;4898053;29;19922;-78
2021/12/14 00:32:46;;;;;;;12.30;9.57;;;8.80;99.90;;;;;;4885263;29;20048;-77
2021/12/14 00:35:14;;;;;;;12.30;10.20;;;8.80;99.90;;;;;;4890986;29;20044;-78
2021/12/14 00:37:46;;;;;;;15.57;10.75;;;8.90;99.90;;;;;;4927651;29;20412;-78
2021/12/14 00:40:21;;;;;;;13.20;10.38;;;8.90;99.90;;;;;;4915207;29;20036;-79
2021/12/14 00:42:48;;;;;;;15.13;10.32;;;8.90;99.90;;;;;;4883883;29;20043;-78
2021/12/14 00:45:17;;;;;;;11.75;10.15;;;8.90;99.90;;;;;;4878981;29;20040;-78
2021/12/14 00:47:44;;;;;;;14.35;11.00;;;8.90;99.90;;;;;;4883864;29;20048;-78
2021/12/14 00:50:12;;;;;;;13.80;11.15;;;8.90;99.90;;;;;;4891078;29;20036;-78
2021/12/14 00:52:41;;;;;;;14.90;10.57;;;8.90;99.90;;;;;;4916369;29;20032;-78
2021/12/14 00:55:09;;;;;;;14.27;11.38;;;8.90;99.90;;;;;;4899627;29;20036;-78
2021/12/14 00:57:37;;;;;;;14.10;12.05;;;8.90;99.90;;;;;;4885193;29;20055;-78
2021/12/14 01:00:11;;;;;;;16.90;11.68;;;8.90;99.90;;;;;;4870438;29;20431;-78
2021/12/14 01:02:38;;;;;;;15.57;12.20;;;8.90;99.90;;;;;;4893654;29;20150;-78
2021/12/14 01:05:32;;;;;;;15.00;11.25;;;8.90;99.90;;;;;;4873668;29;20586;-78
2021/12/14 01:08:00;;;;;;;18.58;12.65;;;8.90;99.90;;;;;;4868047;29;20067;-78
2021/12/14 01:10:46;;;;;;;15.32;12.30;;;8.90;99.90;;;;;;4875430;29;20044;-79
2021/12/14 01:13:14;;;;;;;13.35;11.13;;;8.90;99.90;;;;;;4893147;29;20380;-78
2021/12/14 01:16:00;;;;;;;16.85;12.55;;;8.90;99.90;;;;;;4918644;29;20570;-78
2021/12/14 01:18:47;;;;;;;15.85;12.27;;;8.90;99.90;;;;;;4892581;29;20032;-78
2021/12/14 01:21:45;;;;;;;16.05;12.20;;;8.90;99.90;;;;;;4869937;29;20047;-78
2021/12/14 01:27:17;;;;;;;17.73;13.60;;;8.90;99.90;;;;;;4853221;29;20044;-78
2021/12/14 01:29:46;;;;;;;16.60;12.45;;;8.90;99.90;;;;;;4887729;29;20039;-78
2021/12/14 01:32:13;;;;;;;15.13;11.68;;;8.90;99.90;;;;;;4896585;29;20040;-78
2021/12/14 01:34:40;;;;;;;17.73;14.52;;;8.90;99.90;;;;;;4894544;29;20040;-78
2021/12/14 01:37:14;;;;;;;17.55;13.23;;;8.90;99.90;;;;;;4878478;29;20055;-78
2021/12/14 01:40:00;;;;;;;14.68;12.65;;;8.90;99.90;;;;;;4872453;29;20392;-78
2021/12/14 01:42:34;;;;;;;15.05;12.98;;;8.90;99.90;;;;;;4871751;29;20581;-78
2021/12/14 01:45:09;;;;;;;17.33;14.45;;;8.90;99.90;;;;;;4894810;29;20043;-78
2021/12/14 01:47:59;;;;;;;16.50;13.32;;;8.80;99.90;;;;;;4897921;29;20039;-78
2021/12/14 01:50:42;;;;;;;15.63;12.88;;;8.80;99.90;;;;;;4895419;29;20043;-78
2021/12/14 01:53:29;;;;;;;18.50;14.40;;;8.90;99.90;;;;;;4879259;29;20051;-78
2021/12/14 01:56:01;;;;;;;18.67;13.48;;;8.80;99.90;;;;;;4881027;29;20044;-78
2021/12/14 01:58:41;;;;;;;20.02;14.95;;;8.80;99.90;;;;;;4890924;29;20254;-78
2021/12/14 02:01:14;;;;;;;17.13;14.55;;;8.80;99.90;;;;;;4864191;29;20051;-78
2021/12/14 02:03:47;;;;;;;17.70;15.02;;;8.80;99.90;;;;;;4874122;29;20505;-78
2021/12/14 02:06:18;;;;;;;19.02;16.40;;;8.80;99.90;;;;;;4867361;29;20036;-78
2021/12/14 02:08:45;;;;;;;20.52;15.13;;;8.80;99.90;;;;;;4868414;29;20051;-78
2021/12/14 02:11:12;;;;;;;17.33;14.10;;;8.80;99.90;;;;;;4868306;29;20936;-78
2021/12/14 02:13:43;;;;;;;16.35;13.32;;;8.80;99.90;;;;;;4873821;29;20384;-78
2021/12/14 02:16:17;;;;;;;19.70;16.50;;;8.80;99.90;;;;;;4882701;29;20043;-78
2021/12/14 02:18:48;;;;;;;22.27;16.27;;;8.80;99.90;;;;;;4878508;29;20044;-78
2021/12/14 02:21:16;;;;;;;18.10;15.80;;;8.80;99.90;;;;;;4883029;29;20039;-78
2021/12/14 02:23:46;;;;;;;19.00;14.93;;;8.80;99.90;;;;;;4891285;29;20055;-78
2021/12/14 02:26:25;;;;;;;18.63;15.13;;;8.80;99.90;;;;;;4885000;29;20035;-78
2021/12/14 02:28:55;;;;;;;20.42;15.02;;;8.80;99.90;;;;;;4869424;29;20041;-78
2021/12/14 02:31:24;;;;;;;20.77;16.77;;;8.80;99.90;;;;;;4902445;29;20411;-78
2021/12/14 02:33:53;;;;;;;21.80;15.70;;;8.80;99.90;;;;;;4893245;29;20036;-78
2021/12/14 02:36:45;;;;;;;18.00;14.65;;;8.80;99.90;;;;;;4890621;29;20047;-78
2021/12/14 02:39:25;;;;;;;20.08;14.75;;;8.80;99.90;;;;;;4882370;29;20044;-77
2021/12/14 02:41:55;;;;;;;20.98;16.35;;;8.80;99.90;;;;;;4861239;29;20495;-78
2021/12/14 02:44:25;;;;;;;23.23;16.60;;;8.80;99.90;;;;;;4888735;29;20460;-78
2021/12/14 02:46:58;;;;;;;17.88;14.88;;;8.80;99.90;;;;;;4855089;29;20393;-78
2021/12/14 02:49:30;;;;;;;22.60;17.00;;;8.80;99.90;;;;;;4872698;29;20052;-78
2021/12/14 02:52:01;;;;;;;21.38;16.35;;;8.80;99.90;;;;;;4892868;29;20095;-78
2021/12/14 02:54:37;;;;;;;25.02;17.35;;;8.80;99.90;;;;;;4888232;29;20043;-78
2021/12/14 02:57:12;;;;;;;18.48;15.57;;;8.80;99.90;;;;;;4882822;29;20052;-78
2021/12/14 02:59:41;;;;;;;22.10;16.83;;;8.80;99.90;;;;;;4879966;29;20040;-78
2021/12/14 03:02:17;;;;;;;23.75;17.90;;;8.80;99.90;;;;;;4896659;29;20028;-78
2021/12/14 03:04:49;;;;;;;26.25;17.98;;;8.80;99.90;;;;;;4895784;29;20059;-78
2021/12/14 03:07:17;;;;;;;20.63;15.90;;;8.70;99.90;;;;;;4892408;29;20032;-78
2021/12/14 03:09:59;;;;;;;20.88;16.27;;;8.80;99.90;;;;;;4880286;29;20044;-77
2021/12/14 03:12:35;;;;;;;25.10;19.23;;;8.80;99.90;;;;;;4913059;29;20051;-78
2021/12/14 03:15:01;;;;;;;24.25;18.08;;;8.80;99.90;;;;;;4912300;29;20040;-78
2021/12/14 03:17:28;;;;;;;23.20;17.40;;;8.80;99.90;;;;;;4903171;29;20385;-78
2021/12/14 03:20:26;;;;;;;22.13;17.33;;;8.70;99.90;;;;;;4856865;29;20508;-78
2021/12/14 03:23:03;;;;;;;21.58;16.70;;;8.70;99.90;;;;;;4907071;29;20481;-78
2021/12/14 03:25:33;;;;;;;24.63;17.85;;;8.70;99.90;;;;;;4887708;29;20039;-77
2021/12/14 03:28:00;;;;;;;24.40;19.48;;;8.70;99.90;;;;;;4881818;29;20052;-78
2021/12/14 03:30:34;;;;;;;25.35;18.60;;;8.70;99.90;;;;;;4870332;29;20032;-78
2021/12/14 03:33:16;;;;;;;24.65;17.77;;;8.70;99.90;;;;;;4894744;29;20033;-77
2021/12/14 03:35:56;;;;;;;26.77;18.85;;;8.70;99.90;;;;;;4875615;29;20040;-78
2021/12/14 03:38:29;;;;;;;26.88;18.70;;;8.70;99.90;;;;;;4883782;29;20651;-78
2021/12/14 03:41:10;;;;;;;25.95;18.98;;;8.70;99.90;;;;;;4877946;29;20045;-78
2021/12/14 03:43:39;;;;;;;28.77;21.35;;;8.70;99.90;;;;;;4872071;29;20044;-78
2021/12/14 03:46:10;;;;;;;25.80;19.52;;;8.70;99.90;;;;;;4855292;29;20400;-78
2021/12/14 03:48:39;;;;;;;25.60;19.17;;;8.70;99.90;;;;;;4877780;29;20036;-78
2021/12/14 03:51:06;;;;;;;24.70;18.70;;;8.70;99.90;;;;;;4875675;29;20043;-77
2021/12/14 03:53:33;;;;;;;21.17;16.63;;;8.70;99.90;;;;;;4902990;29;20039;-78
2021/12/14 03:56:04;;;;;;;25.23;18.17;;;8.70;99.90;;;;;;4872587;29;20126;-78
2021/12/14 03:58:40;;;;;;;21.98;15.55;;;8.70;99.90;;;;;;4874606;29;20680;-78
2021/12/14 04:01:15;;;;;;;25.15;18.55;;;8.70;99.90;;;;;;4885224;29;20044;-78
2021/12/14 04:03:55;;;;;;;21.42;16.63;;;8.70;99.90;;;;;;4859775;29;20037;-78
2021/12/14 04:06:27;;;;;;;25.83;18.17;;;8.70;99.90;;;;;;4882925;29;20519;-76
2021/12/14 04:08:55;;;;;;;28.23;20.02;;;8.70;99.90;;;;;;4858099;29;21293;-76
2021/12/14 04:11:22;;;;;;;26.77;20.02;;;8.60;99.90;;;;;;4895423;29;20032;-76
2021/12/14 04:13:54;;;;;;;26.50;17.92;;;8.70;99.90;;;;;;4898646;29;20510;-76
2021/12/14 04:16:40;;;;;;;26.65;19.70;;;8.70;99.90;;;;;;4877148;29;20048;-76
2021/12/14 04:19:10;;;;;;;28.58;17.85;;;8.70;99.90;;;;;;4913571;29;20044;-76
2021/12/14 04:21:41;;;;;;;22.83;18.10;;;8.70;99.90;;;;;;4875334;29;20040;-76
2021/12/14 04:24:13;;;;;;;22.30;16.60;;;8.70;99.90;;;;;;4878228;29;20047;-76
2021/12/14 04:26:44;;;;;;;26.60;18.13;;;8.70;99.90;;;;;;4872951;29;20036;-76
2021/12/14 04:29:14;;;;;;;24.63;18.33;;;8.70;99.90;;;;;;4876922;29;20051;-76
2021/12/14 04:31:43;;;;;;;26.95;19.13;;;8.70;99.90;;;;;;4879960;29;20468;-76
2021/12/14 04:34:10;;;;;;;29.40;19.58;;;8.70;99.90;;;;;;4870178;29;20067;-76
2021/12/14 04:36:39;;;;;;;25.00;18.63;;;8.70;99.90;;;;;;4864498;29;20040;-77
2021/12/14 04:53:10;;;;;;;22.52;16.67;;;8.60;99.90;;;;;;4897395;29;20032;-76
2021/12/14 04:55:43;;;;;;;23.60;18.23;;;8.60;99.90;;;;;;4911743;29;20040;-77
2021/12/14 04:58:12;;;;;;;23.50;18.67;;;8.60;99.90;;;;;;4890235;29;20043;-76
2021/12/14 05:00:46;;;;;;;24.95;18.38;;;8.60;99.90;;;;;;4879005;29;20540;-77
2021/12/14 05:03:39;;;;;;;23.92;16.73;;;8.60;99.90;;;;;;4895743;29;20040;-76
2021/12/14 05:06:22;;;;;;;26.92;17.83;;;8.60;99.90;;;;;;4896631;29;20043;-77
2021/12/14 05:11:22;;;;;;;26.20;17.05;;;8.60;99.90;;;;;;4896265;29;20040;-76
2021/12/14 05:13:57;;;;;;;24.90;16.95;;;8.60;99.90;;;;;;4866423;29;20491;-76
2021/12/14 05:16:32;;;;;;;22.25;16.38;;;8.60;99.90;;;;;;4876146;29;20044;-76
2021/12/14 05:19:04;;;;;;;24.80;17.85;;;8.60;99.90;;;;;;4861908;29;20051;-76
2021/12/14 05:21:42;;;;;;;23.58;17.70;;;8.60;99.90;;;;;;4893060;29;20047;-76
2021/12/14 05:24:21;;;;;;;25.77;17.42;;;8.50;99.90;;;;;;4870945;29;20044;-76
2021/12/14 05:27:01;;;;;;;24.15;16.77;;;8.50;99.90;;;;;;4872012;29;20036;-76
2021/12/14 05:29:32;;;;;;;24.88;16.65;;;8.50;99.90;;;;;;4874674;29;20047;-76
2021/12/14 05:32:03;;;;;;;25.63;15.73;;;8.60;99.90;;;;;;4884354;29;20051;-77
2021/12/14 05:34:31;;;;;;;28.05;17.40;;;8.50;99.90;;;;;;4882224;29;20039;-76
2021/12/14 05:37:05;;;;;;;22.30;15.40;;;8.60;99.90;;;;;;4888232;29;20047;-76
2021/12/14 05:44:55;;;;;;;20.20;14.65;;;8.60;99.90;;;;;;4888197;29;20493;-76
2021/12/14 05:47:24;;;;;;;19.75;14.32;;;8.60;99.90;;;;;;4869723;29;20045;-76
2021/12/14 05:50:02;;;;;;;21.17;14.18;;;8.60;99.90;;;;;;4860240;29;20399;-76
2021/12/14 05:52:30;;;;;;;19.90;14.05;;;8.60;99.90;;;;;;4873761;29;20032;-76
2021/12/14 05:55:06;;;;;;;20.63;14.23;;;8.50;99.90;;;;;;4859712;29;20043;-76
2021/12/14 05:57:33;;;;;;;22.75;15.27;;;8.50;99.90;;;;;;4893967;29;20392;-76
2021/12/14 05:59:59;;;;;;;20.55;14.75;;;8.50;99.90;;;;;;4890291;29;20067;-76
2021/12/14 06:02:28;;;;;;;20.83;14.18;;;8.50;99.90;;;;;;4877368;29;20463;-76
2021/12/14 06:04:56;;;;;;;20.90;13.52;;;8.50;99.90;;;;;;4882580;29;20040;-76
2021/12/14 06:07:24;;;;;;;20.67;14.07;;;8.50;99.90;;;;;;4890777;29;20048;-76
2021/12/14 06:09:52;;;;;;;21.05;14.25;;;8.50;99.90;;;;;;4874966;29;20037;-76
2021/12/14 06:12:31;;;;;;;19.33;12.85;;;8.50;99.90;;;;;;4887852;29;20068;-76
2021/12/14 06:15:00;;;;;;;22.77;13.48;;;8.50;99.90;;;;;;4888930;29;20047;-76
2021/12/14 06:17:31;;;;;;;23.67;15.07;;;8.50;99.90;;;;;;4890091;29;20048;-76
2021/12/14 06:20:20;;;;;;;21.58;14.18;;;8.50;99.90;;;;;;4886950;29;20527;-76
2021/12/14 06:22:51;;;;;;;17.15;11.55;;;8.50;99.90;;;;;;4893258;29;20043;-76
2021/12/14 06:25:38;;;;;;;21.55;13.90;;;8.50;99.90;;;;;;4871655;29;20388;-76
2021/12/14 06:28:05;;;;;;;21.52;13.30;;;8.50;99.90;;;;;;4882738;29;20055;-77
2021/12/14 06:30:35;;;;;;;18.75;12.68;;;8.50;99.90;;;;;;4887642;29;20047;-76
2021/12/14 06:33:08;;;;;;;22.52;14.23;;;8.50;99.90;;;;;;4894872;29;20047;-76
2021/12/14 06:35:45;;;;;;;21.52;14.35;;;8.60;99.90;;;;;;4902601;29;20044;-76
2021/12/14 06:38:40;;;;;;;21.27;12.77;;;8.50;99.90;;;;;;4892886;29;20056;-77
2021/12/14 06:41:17;;;;;;;24.15;14.57;;;8.50;99.90;;;;;;4894723;29;20046;-76
2021/12/14 06:43:58;;;;;;;24.48;15.38;;;8.50;99.90;;;;;;4897765;29;20039;-76
2021/12/14 06:46:28;;;;;;;23.52;15.57;;;8.50;99.90;;;;;;4882637;29;20048;-76
2021/12/14 06:48:59;;;;;;;24.75;15.32;;;8.50;99.90;;;;;;4880420;29;20506;-76
2021/12/14 06:51:36;;;;;;;26.80;16.30;;;8.50;99.90;;;;;;4911533;29;20028;-76
2021/12/14 06:54:18;;;;;;;27.67;16.20;;;8.50;99.90;;;;;;4898180;29;20040;-76
2021/12/14 06:57:05;;;;;;;27.40;16.05;;;8.50;99.90;;;;;;4896990;29;20470;-77
2021/12/14 06:59:39;;;;;;;24.73;15.10;;;8.50;99.90;;;;;;4906960;29;20040;-77
2021/12/14 07:02:10;;;;;;;23.85;14.25;;;8.50;99.90;;;;;;4914562;29;20510;-75
2021/12/14 07:04:55;;;;;;;28.00;16.30;;;8.50;99.90;;;;;;4913545;29;20036;-76
2021/12/14 07:07:26;;;;;;;28.52;16.83;;;8.50;99.90;;;;;;4897238;29;20387;-76
2021/12/14 07:09:57;;;;;;;28.25;17.77;;;8.50;99.90;;;;;;4894153;29;20047;-76
2021/12/14 07:12:32;;;;;;;27.85;17.08;;;8.50;99.90;;;;;;4895553;29;20039;-77
2021/12/14 07:15:01;;;;;;;26.20;15.95;;;8.50;99.90;;;;;;4897401;29;20036;-77
2021/12/14 07:17:31;;;;;;;24.17;16.52;;;8.50;99.90;;;;;;4881860;29;20040;-77
2021/12/14 07:20:04;;;;;;;26.70;16.92;;;8.50;99.90;;;;;;4892229;29;20043;-77
2021/12/14 07:22:38;;;;;;;26.63;16.75;;;8.50;99.90;;;;;;4896271;29;20399;-76
2021/12/14 07:25:15;;;;;;;27.98;15.95;;;8.50;99.90;;;;;;4913110;29;20043;-76
2021/12/14 07:27:50;;;;;;;26.90;17.20;;;8.50;99.90;;;;;;4912935;29;20047;-76
2021/12/14 07:30:31;;;;;;;27.60;17.38;;;8.50;99.90;;;;;;4879124;29;20099;-76
2021/12/14 07:33:02;;;;;;;29.10;17.45;;;8.50;99.90;;;;;;4893231;29;20032;-78
2021/12/14 07:35:32;;;;;;;26.98;16.63;;;8.50;99.90;;;;;;4881531;29;20064;-77
2021/12/14 07:38:17;;;;;;;23.90;15.55;;;8.50;99.90;;;;;;4897695;29;20040;-77
2021/12/14 07:40:57;;;;;;;30.92;17.30;;;8.50;99.90;;;;;;4914949;29;20040;-76
2021/12/14 07:43:33;;;;;;;30.23;18.80;;;8.50;99.90;;;;;;4881399;29;20044;-78
2021/12/14 07:46:00;;;;;;;30.52;19.60;;;8.50;99.90;;;;;;4881531;29;20044;-76
2021/12/14 07:48:48;;;;;;;33.40;20.15;;;8.50;99.90;;;;;;4913862;29;20036;-77
2021/12/14 07:51:18;;;;;;;29.15;18.58;;;8.60;99.90;;;;;;4884354;29;20512;-76
2021/12/14 07:53:49;;;;;;;34.75;21.55;;;8.50;99.90;;;;;;4880860;29;20041;-76
2021/12/14 07:56:27;;;;;;;30.30;19.80;;;8.50;99.90;;;;;;4894993;29;20039;-76
2021/12/14 07:58:54;;;;;;;30.50;19.40;;;8.50;99.90;;;;;;4898798;29;20047;-76
2021/12/14 08:01:21;;;;;;;30.67;19.30;;;8.50;99.90;;;;;;4912760;29;20047;-76
2021/12/14 08:03:56;;;;;;;31.95;19.23;;;8.50;99.90;;;;;;4889392;29;20040;-76
2021/12/14 08:06:23;;;;;;;33.28;20.17;;;8.50;99.90;;;;;;4902309;29;20036;-76
2021/12/14 08:08:54;;;;;;;30.30;18.83;;;8.50;99.90;;;;;;4910520;29;20040;-76
2021/12/14 08:14:26;;;;;;;33.40;19.48;;;8.50;99.90;;;;;;4910369;29;20036;-76
2021/12/14 08:17:06;;;;;;;32.22;20.25;;;8.50;99.90;;;;;;4892997;29;20036;-76
2021/12/14 08:19:42;;;;;;;32.42;19.65;;;8.60;99.90;;;;;;4894684;29;20040;-76
2021/12/14 08:22:26;;;;;;;28.10;18.83;;;8.60;99.90;;;;;;4894697;29;20051;-76
2021/12/14 08:24:52;;;;;;;32.25;19.98;;;8.60;99.90;;;;;;4910688;29;20039;-76
2021/12/14 08:27:24;;;;;;;32.80;20.27;;;8.60;99.90;;;;;;4912900;29;20657;-76
2021/12/14 08:29:55;;;;;;;37.13;22.13;;;8.60;99.90;;;;;;4891972;29;20036;-76
2021/12/14 08:32:25;;;;;;;36.85;20.85;;;8.60;99.90;;;;;;4912586;29;20275;-75
2021/12/14 08:34:56;;;;;;;31.38;20.45;;;8.60;99.90;;;;;;4893743;29;20043;-76
2021/12/14 08:37:36;;;;;;;34.20;20.88;;;8.70;99.90;;;;;;4879460;29;20052;-76
2021/12/14 08:40:26;;;;;;;36.17;22.60;;;8.70;99.90;;;;;;4907412;29;20067;-76
2021/12/14 08:43:21;;;;;;;38.33;23.30;;;8.70;99.90;;;;;;4877590;29;20040;-76
2021/12/14 08:46:07;;;;;;;36.53;23.20;;;8.70;99.90;;;;;;4890656;29;20036;-76
2021/12/14 08:48:43;;;;;;;37.50;23.35;;;8.70;99.90;;;;;;4893680;29;20051;-76
2021/12/14 08:51:20;;;;;;;35.95;22.52;;;8.80;99.90;;;;;;4895408;29;20055;-76
2021/12/14 08:54:15;;;;;;;34.35;21.63;;;8.80;99.90;;;;;;4911839;29;20032;-76
2021/12/14 08:56:51;;;;;;;39.45;23.40;;;8.80;99.90;;;;;;4911553;29;20044;-76
2021/12/14 08:59:17;;;;;;;36.20;23.50;;;8.90;99.90;;;;;;4910466;29;20044;-76
2021/12/14 09:01:45;;;;;;;42.25;26.38;;;8.90;99.90;;;;;;4896641;29;20044;-75
2021/12/14 09:04:31;;;;;;;40.75;25.77;;;8.90;99.90;;;;;;4875202;29;21118;-75
2021/12/14 09:07:05;;;;;;;41.15;25.52;;;9.00;99.90;;;;;;4879040;29;20032;-75
2021/12/14 09:09:32;;;;;;;37.83;25.95;;;9.00;99.90;;;;;;4912318;29;20033;-75
2021/12/14 09:12:19;;;;;;;41.13;26.08;;;9.00;99.90;;;;;;4898601;29;20506;-75
2021/12/14 09:14:48;;;;;;;38.65;26.15;;;9.00;99.90;;;;;;4875184;29;20053;-75
2021/12/14 09:17:17;;;;;;;35.33;22.67;;;9.10;99.90;;;;;;4875110;29;20047;-76
2021/12/14 09:19:58;;;;;;;35.83;23.48;;;9.10;99.90;;;;;;4909052;29;20491;-75
2021/12/14 09:22:29;;;;;;;42.58;26.52;;;9.10;99.90;;;;;;4889227;29;20063;-76
2021/12/14 09:24:57;;;;;;;38.67;26.80;;;9.20;99.90;;;;;;4911368;29;20040;-75
2021/12/14 09:27:26;;;;;;;43.20;27.45;;;9.20;99.90;;;;;;4879547;29;20044;-75
2021/12/14 09:29:55;;;;;;;37.65;25.38;;;9.20;99.90;;;;;;4892323;29;20032;-75
2021/12/14 09:32:27;;;;;;;38.28;25.77;;;9.20;99.90;;;;;;4895611;29;20499;-76
2021/12/14 09:34:56;;;;;;;43.55;27.90;;;9.20;99.90;;;;;;4911205;29;20048;-75
2021/12/14 09:37:25;;;;;;;35.92;24.88;;;9.20;99.90;;;;;;4880560;29;20404;-75
2021/12/14 09:39:56;;;;;;;46.60;29.40;;;9.20;99.90;;;;;;4911512;29;20043;-75
2021/12/14 09:42:31;;;;;;;42.70;27.25;;;9.20;99.90;;;;;;4909863;29;20377;-75
2021/12/14 09:45:01;;;;;;;41.95;27.02;;;9.20;99.90;;;;;;4875430;29;20052;-75
2021/12/14 09:47:31;;;;;;;38.58;25.63;;;9.30;99.90;;;;;;4874060;29;20411;-76
2021/12/14 09:50:00;;;;;;;38.25;25.25;;;9.30;99.90;;;;;;4906240;29;20043;-75
2021/12/14 09:52:31;;;;;;;40.92;26.88;;;9.30;99.90;;;;;;4891301;29;20057;-75
2021/12/14 09:54:59;;;;;;;46.28;28.77;;;9.40;99.90;;;;;;4874972;29;20039;-75
2021/12/14 09:57:30;;;;;;;44.30;29.20;;;9.40;99.90;;;;;;4894802;29;20055;-75
2021/12/14 10:00:00;;;;;;;44.15;28.63;;;9.40;99.90;;;;;;4871787;29;20042;-75
2021/12/14 10:02:33;;;;;;;43.28;27.67;;;9.40;99.90;;;;;;4880269;29;20479;-75
2021/12/14 10:05:06;;;;;;;48.53;30.55;;;9.40;99.90;;;;;;4892543;29;20094;-76
2021/12/14 10:07:33;;;;;;;45.03;28.00;;;9.40;99.90;;;;;;4890799;29;20043;-76
2021/12/14 10:10:02;;;;;;;44.30;28.65;;;9.40;99.90;;;;;;4888940;29;20048;-76
2021/12/14 10:15:18;;;;;;;42.72;28.05;;;9.40;99.90;;;;;;4870927;29;20036;-76
2021/12/14 10:17:45;;;;;;;49.58;30.23;;;9.40;99.90;;;;;;4897509;29;20044;-75
2021/12/14 10:20:24;;;;;;;49.88;32.35;;;9.40;99.90;;;;;;4909148;29;20499;-76
2021/12/14 10:22:52;;;;;;;46.20;29.45;;;9.40;99.90;;;;;;4892140;29;20032;-76
2021/12/14 10:25:21;;;;;;;45.95;29.10;;;9.40;99.90;;;;;;4910017;29;20040;-76
2021/12/14 10:27:49;;;;;;;48.70;30.67;;;9.40;99.90;;;;;;4909079;29;20038;-75
2021/12/14 10:30:21;;;;;;;52.15;33.40;;;9.40;99.90;;;;;;4887368;29;20044;-75
2021/12/14 10:32:48;;;;;;;48.40;29.80;;;9.50;99.90;;;;;;4893406;29;20480;-76
2021/12/14 10:35:22;;;;;;;51.10;31.27;;;9.50;99.90;;;;;;4882342;29;20049;-76
2021/12/14 10:38:10;;;;;;;51.08;31.10;;;9.50;99.90;;;;;;4892547;29;20064;-75
2021/12/14 10:43:29;;;;;;;49.67;32.45;;;9.60;99.90;;;;;;4896680;29;20043;-76
2021/12/14 10:46:01;;;;;;;50.83;31.73;;;9.60;99.90;;;;;;4897435;29;20043;-76
2021/12/14 10:48:32;;;;;;;52.45;32.13;;;9.60;99.90;;;;;;4913253;29;20040;-76
2021/12/14 10:51:04;;;;;;;52.70;32.70;;;9.70;99.90;;;;;;4891680;29;20052;-76
2021/12/14 10:53:32;;;;;;;50.78;32.30;;;9.70;99.90;;;;;;4908376;29;20039;-76
2021/12/14 10:56:09;;;;;;;55.50;34.47;;;9.70;99.90;;;;;;4876693;29;20044;-76
2021/12/14 10:58:39;;;;;;;56.92;33.05;;;9.70;99.90;;;;;;4876696;29;20044;-76
2021/12/14 11:01:14;;;;;;;58.25;34.53;;;9.70;99.90;;;;;;4912135;29;20522;-76
2021/12/14 11:03:45;;;;;;;53.55;32.78;;;9.70;99.90;;;;;;4912646;29;20044;-76
2021/12/14 11:06:16;;;;;;;54.53;34.53;;;9.80;99.90;;;;;;4882044;29;20491;-76
2021/12/14 11:11:35;;;;;;;59.70;34.13;;;9.80;99.90;;;;;;4906321;29;20491;-76
2021/12/14 11:14:06;;;;;;;57.10;33.92;;;9.90;99.90;;;;;;4889024;29;20039;-76
2021/12/14 11:19:45;;;;;;;53.50;31.93;;;9.90;99.90;;;;;;4903821;29;20028;-76
2021/12/14 11:22:14;;;;;;;57.80;34.67;;;9.90;99.90;;;;;;4892365;29;20040;-76
2021/12/14 11:24:43;;;;;;;55.90;33.60;;;9.90;99.90;;;;;;4912961;29;20044;-76
2021/12/14 11:27:23;;;;;;;64.70;42.33;;;9.90;99.90;;;;;;4911192;29;20028;-76
2021/12/14 11:29:55;;;;;;;60.20;37.83;;;10.00;99.90;;;;;;4910727;29;20028;-79
2021/12/14 11:32:24;;;;;;;65.18;39.08;;;10.00;99.90;;;;;;4854737;29;20416;-76
2021/12/14 11:34:50;;;;;;;62.50;37.88;;;10.00;99.90;;;;;;4868352;29;20051;-77
2021/12/14 11:37:22;;;;;;;65.32;38.92;;;10.00;99.90;;;;;;4866280;29;20059;-77
2021/12/14 11:39:52;;;;;;;64.55;39.42;;;10.00;99.90;;;;;;4883692;29;20048;-77
2021/12/14 11:42:18;;;;;;;67.93;40.80;;;10.10;99.90;;;;;;4905042;29;20046;-77
2021/12/14 11:44:50;;;;;;;58.08;36.67;;;10.10;99.90;;;;;;4891044;29;20044;-77
2021/12/14 11:48:03;;;;;;;65.68;38.47;;;10.10;99.90;;;;;;4905732;29;20035;-78
2021/12/14 11:50:27;;;;;;;73.67;41.87;;;10.10;99.90;;;;;;4878802;29;20126;-77
2021/12/14 11:53:09;;;;;;;66.15;40.63;;;10.10;99.90;;;;;;4911401;29;20395;-78
2021/12/14 11:55:52;;;;;;;64.15;37.90;;;10.10;99.90;;;;;;4912686;29;20028;-78
2021/12/14 11:58:30;;;;;;;66.20;39.95;;;10.10;99.90;;;;;;4887893;29;20028;-77
2021/12/14 12:01:08;;;;;;;62.42;38.15;;;10.20;99.90;;;;;;4860927;29;20035;-78
2021/12/14 12:03:43;;;;;;;64.95;40.60;;;10.20;99.90;;;;;;4910900;29;20032;-77
2021/12/14 12:06:13;;;;;;;68.05;41.50;;;10.20;99.90;;;;;;4879243;29;20060;-76
2021/12/14 12:11:37;;;;;;;60.13;37.90;;;10.20;99.90;;;;;;4909918;29;20479;-78
2021/12/14 12:14:22;;;;;;;60.03;39.33;;;10.20;99.90;;;;;;4912111;29;20395;-78
2021/12/14 12:16:50;;;;;;;59.55;37.22;;;10.20;99.90;;;;;;4881217;29;20056;-77
2021/12/14 12:19:22;;;;;;;62.28;38.20;;;10.20;99.90;;;;;;4872488;29;20063;-77
2021/12/14 12:21:49;;;;;;;66.43;39.75;;;10.20;99.90;;;;;;4907162;29;20024;-76
2021/12/14 12:24:50;;;;;;;61.47;39.05;;;10.20;99.90;;;;;;4885286;29;20055;-76
2021/12/14 12:27:31;;;;;;;60.97;37.58;;;10.20;99.90;;;;;;4913846;29;20059;-76
2021/12/14 12:30:08;;;;;;;62.55;38.35;;;10.20;99.90;;;;;;4900034;29;20033;-76
2021/12/14 12:32:35;;;;;;;61.92;38.15;;;10.10;99.90;;;;;;4898170;29;20056;-76
2021/12/14 12:35:03;;;;;;;62.28;38.72;;;10.10;99.90;;;;;;4884162;29;20044;-76
2021/12/14 12:37:48;;;;;;;73.38;44.38;;;10.10;99.90;;;;;;4895329;29;20044;-76
2021/12/14 12:40:18;;;;;;;68.15;39.67;;;10.10;99.90;;;;;;4900901;29;20044;-76
2021/12/14 12:42:46;;;;;;;68.57;41.20;;;10.00;99.90;;;;;;4889505;29;20055;-75
2021/12/14 12:45:33;;;;;;;65.63;39.13;;;10.00;99.90;;;;;;4916390;29;20051;-76
2021/12/14 12:48:01;;;;;;;71.10;40.58;;;10.00;99.90;;;;;;4885483;29;20058;-76
2021/12/14 12:50:29;;;;;;;63.58;37.95;;;10.00;99.90;;;;;;4874055;29;20074;-76
2021/12/14 12:52:56;;;;;;;61.88;38.10;;;10.00;99.90;;;;;;4895675;29;20051;-76
2021/12/14 12:55:31;;;;;;;69.30;38.83;;;10.00;99.90;;;;;;4885007;29;20043;-75
2021/12/14 12:58:12;;;;;;;72.85;42.25;;;10.00;99.90;;;;;;4911552;29;20040;-76
2021/12/14 13:00:46;;;;;;;67.43;38.97;;;10.00;99.90;;;;;;4912158;29;20043;-76
2021/12/14 13:03:25;;;;;;;61.30;37.05;;;10.00;99.90;;;;;;4882312;29;20463;-76
2021/12/14 13:05:59;;;;;;;67.68;41.17;;;10.00;99.90;;;;;;4918918;29;20395;-76
2021/12/14 13:08:38;;;;;;;66.68;39.30;;;10.00;99.90;;;;;;4910745;29;20040;-76
2021/12/14 13:11:07;;;;;;;63.90;38.75;;;10.00;99.90;;;;;;4912628;29;20043;-76
2021/12/14 13:13:49;;;;;;;58.03;35.80;;;10.00;99.90;;;;;;4878685;29;20044;-76
2021/12/14 13:16:32;;;;;;;64.50;37.55;;;10.00;99.90;;;;;;4896552;29;20060;-76
2021/12/14 13:19:13;;;;;;;72.10;41.28;;;10.00;99.90;;;;;;4901129;29;20621;-76
2021/12/14 13:21:53;;;;;;;68.28;40.17;;;10.00;99.90;;;;;;4912043;29;20028;-76
2021/12/14 13:24:29;;;;;;;66.22;38.63;;;10.00;99.90;;;;;;4913418;29;20482;-75
2021/12/14 13:27:22;;;;;;;73.57;40.38;;;10.00;99.90;;;;;;4879345;29;20044;-75
2021/12/14 13:29:56;;;;;;;74.97;40.85;;;10.00;99.90;;;;;;4895016;29;20424;-75
2021/12/14 13:32:29;;;;;;;76.20;42.15;;;10.00;99.90;;;;;;4897759;29;20036;-75
2021/12/14 13:35:02;;;;;;;71.00;40.05;;;10.00;99.90;;;;;;4892165;29;20059;-75
2021/12/14 13:37:49;;;;;;;74.68;38.53;;;10.00;99.90;;;;;;4921920;29;20055;-76
2021/12/14 13:40:24;;;;;;;78.78;43.00;;;10.00;99.90;;;;;;4884835;29;20512;-76
2021/12/14 13:42:59;;;;;;;81.13;43.75;;;9.90;99.90;;;;;;4918353;29;20044;-76
2021/12/14 13:45:32;;;;;;;75.80;42.35;;;9.90;99.90;;;;;;4897756;29;20052;-76
2021/12/14 13:48:01;;;;;;;71.88;39.88;;;9.90;99.90;;;;;;4896858;29;20329;-76
2021/12/14 13:50:34;;;;;;;69.38;38.20;;;9.90;99.90;;;;;;4894019;29;20032;-75
2021/12/14 13:53:00;;;;;;;;;;;9.90;99.90;;;;;;4915266;29;20027;-75
2021/12/14 13:55:36;;;;;;;61.33;36.35;;;9.90;99.90;;;;;;4898744;29;20314;-75